createdAt,value
2024-03-26T00:02:47.000Z,7
2024-03-26T00:06:15.000Z,8.2
2024-03-26T00:09:44.000Z,10.8
2024-03-26T00:12:27.000Z,8.9
2024-03-26T00:15:55.000Z,8.6
2024-03-26T00:19:23.000Z,8.2
2024-03-26T00:22:51.000Z,10.8
2024-03-26T00:26:19.000Z,12.7
2024-03-26T00:29:47.000Z,9.2
2024-03-26T00:33:15.000Z,7.5
2024-03-26T00:36:43.000Z,10.4
2024-03-26T00:40:11.000Z,10.1
2024-03-26T00:43:39.000Z,10.7
2024-03-26T00:47:06.000Z,11.6
2024-03-26T00:49:50.000Z,9.3
2024-03-26T00:53:18.000Z,6.6
2024-03-26T00:56:46.000Z,8.7
2024-03-26T01:00:14.000Z,8.1
2024-03-26T01:03:42.000Z,9.8
2024-03-26T01:07:10.000Z,7.4
2024-03-26T01:10:38.000Z,9.3
2024-03-26T01:14:06.000Z,8.3
2024-03-26T01:17:34.000Z,7.4
2024-03-26T01:21:02.000Z,8.9
2024-03-26T01:24:30.000Z,8.5
2024-03-26T01:27:13.000Z,7.9
2024-03-26T01:30:41.000Z,8.8
2024-03-26T01:34:10.000Z,12.1
2024-03-26T01:37:38.000Z,7.9
2024-03-26T01:41:06.000Z,7.7
2024-03-26T01:44:34.000Z,11.2
2024-03-26T01:48:02.000Z,8.7
2024-03-26T01:51:29.000Z,7.1
2024-03-26T01:54:57.000Z,8.9
2024-03-26T01:58:25.000Z,7.5
2024-03-26T02:01:53.000Z,8.8
2024-03-26T02:04:37.000Z,8.9
2024-03-26T02:08:05.000Z,8.9
2024-03-26T02:11:34.000Z,9.7
2024-03-26T02:15:02.000Z,11.6
2024-03-26T02:18:30.000Z,6.9
2024-03-26T02:21:58.000Z,7.7
2024-03-26T02:25:26.000Z,8.8
2024-03-26T02:28:54.000Z,8.6
2024-03-26T02:32:22.000Z,24.7
2024-03-26T02:35:50.000Z,10
2024-03-26T02:39:18.000Z,8.7
2024-03-26T02:42:01.000Z,7.7
2024-03-26T02:45:29.000Z,8.7
2024-03-26T02:48:57.000Z,10.9
2024-03-26T02:52:25.000Z,10.5
2024-03-26T02:55:53.000Z,8.5
2024-03-26T02:59:20.000Z,6.5
2024-03-26T03:02:48.000Z,9
2024-03-26T03:06:16.000Z,8
2024-03-26T03:09:44.000Z,10.4
2024-03-26T03:13:12.000Z,8.8
2024-03-26T03:16:40.000Z,8.9
2024-03-26T03:19:24.000Z,12.5
2024-03-26T03:22:52.000Z,6.7
2024-03-26T03:26:19.000Z,8
2024-03-26T03:29:47.000Z,9.2
2024-03-26T03:33:16.000Z,6.8
2024-03-26T03:36:44.000Z,7.8
2024-03-26T03:40:12.000Z,10.3
2024-03-26T03:43:40.000Z,9.2
2024-03-26T03:47:08.000Z,8.3
2024-03-26T03:50:36.000Z,7.3
2024-03-26T03:54:04.000Z,11.9
2024-03-26T03:56:47.000Z,9.4
2024-03-26T04:00:15.000Z,11.3
2024-03-26T04:03:43.000Z,10
2024-03-26T04:07:11.000Z,8.3
2024-03-26T04:10:39.000Z,9.9
2024-03-26T04:14:06.000Z,7.6
2024-03-26T04:17:35.000Z,6.4
2024-03-26T04:21:04.000Z,8.4
2024-03-26T04:24:32.000Z,6.9
2024-03-26T04:28:00.000Z,8.1
2024-03-26T04:31:28.000Z,13.7
2024-03-26T04:34:11.000Z,9.1
2024-03-26T04:37:39.000Z,8.9
2024-03-26T04:41:07.000Z,9.2
2024-03-26T04:44:35.000Z,8.7
2024-03-26T04:48:03.000Z,8.2
2024-03-26T04:51:31.000Z,7.3
2024-03-26T04:54:59.000Z,10.9
2024-03-26T04:58:27.000Z,7.5
2024-03-26T05:01:55.000Z,9.2
2024-03-26T05:05:23.000Z,9.2
2024-03-26T05:08:51.000Z,9.1
2024-03-26T05:11:35.000Z,9.2
2024-03-26T05:15:03.000Z,8
2024-03-26T05:18:31.000Z,9.3
2024-03-26T05:21:59.000Z,8.3
2024-03-26T05:25:27.000Z,10
2024-03-26T05:28:55.000Z,7.9
2024-03-26T05:32:23.000Z,9
2024-03-26T05:35:51.000Z,12.2
2024-03-26T05:39:19.000Z,12.1
2024-03-26T05:42:47.000Z,10.4
2024-03-26T05:46:15.000Z,10
2024-03-26T05:48:58.000Z,8.6
2024-03-26T05:52:26.000Z,7.7
2024-03-26T05:55:54.000Z,10.1
2024-03-26T05:59:25.000Z,11.9
2024-03-26T06:02:53.000Z,7.7
2024-03-26T06:06:21.000Z,37.6
2024-03-26T06:13:33.000Z,11
2024-03-26T06:17:02.000Z,8.9
2024-03-26T06:20:30.000Z,10.6
2024-03-26T06:23:58.000Z,14.7
2024-03-26T06:26:41.000Z,16.6
2024-03-26T06:30:09.000Z,14.4
2024-03-26T06:33:36.000Z,12.5
2024-03-26T06:37:04.000Z,13.1
2024-03-26T06:40:33.000Z,11.1
2024-03-26T06:44:00.000Z,11.2
2024-03-26T06:47:29.000Z,12.8
2024-03-26T06:50:57.000Z,15.6
2024-03-26T06:54:25.000Z,12.8
2024-03-26T06:57:53.000Z,11.7
2024-03-26T07:01:24.000Z,18.3
2024-03-26T07:04:10.000Z,13.8
2024-03-26T07:07:42.000Z,16
2024-03-26T07:11:15.000Z,18.6
2024-03-26T07:14:47.000Z,15.5
2024-03-26T07:18:20.000Z,16.7
2024-03-26T07:21:53.000Z,16.6
2024-03-26T07:25:26.000Z,20.3
2024-03-26T07:28:59.000Z,20.4
2024-03-26T07:32:32.000Z,15.4
2024-03-26T07:36:05.000Z,17.3
2024-03-26T07:39:38.000Z,15.6
2024-03-26T07:42:23.000Z,16.9
2024-03-26T07:45:56.000Z,13
2024-03-26T07:49:28.000Z,12.8
2024-03-26T07:53:01.000Z,14.8
2024-03-26T07:56:34.000Z,12.7
2024-03-26T08:00:07.000Z,14.6
2024-03-26T08:03:40.000Z,13.6
2024-03-26T08:07:13.000Z,12.3
2024-03-26T08:10:45.000Z,14.1
2024-03-26T08:14:18.000Z,13.6
2024-03-26T08:17:51.000Z,13.2
2024-03-26T08:20:37.000Z,13.4
2024-03-26T08:24:09.000Z,10.8
2024-03-26T08:27:42.000Z,14.5
2024-03-26T08:31:15.000Z,17.2
2024-03-26T08:34:48.000Z,10
2024-03-26T08:38:20.000Z,12.3
2024-03-26T08:41:53.000Z,9.8
2024-03-26T08:45:26.000Z,8.6
2024-03-26T08:48:59.000Z,10.1
2024-03-26T08:52:32.000Z,11.4
2024-03-26T08:56:04.000Z,9.3
2024-03-26T08:59:00.000Z,7.6
2024-03-26T09:02:33.000Z,10.1
2024-03-26T09:06:06.000Z,8.4
2024-03-26T09:09:39.000Z,12.2
2024-03-26T09:13:12.000Z,8
2024-03-26T09:16:44.000Z,13
2024-03-26T09:20:17.000Z,10.1
2024-03-26T09:23:50.000Z,9.1
2024-03-26T09:27:22.000Z,8.3
2024-03-26T09:30:55.000Z,7.6
2024-03-26T09:34:30.000Z,9.6
2024-03-26T09:37:16.000Z,8.1
2024-03-26T09:40:59.000Z,7.8
2024-03-26T09:44:32.000Z,9.8
2024-03-26T09:48:08.000Z,8.7
2024-03-26T09:51:41.000Z,10.2
2024-03-26T09:55:14.000Z,7.1
2024-03-26T09:58:47.000Z,6.8
2024-03-26T10:02:20.000Z,5.4
2024-03-26T10:05:53.000Z,8
2024-03-26T10:09:26.000Z,8
2024-03-26T10:12:59.000Z,8.6
2024-03-26T10:15:44.000Z,5.3
2024-03-26T10:19:17.000Z,4.7
2024-03-26T10:22:50.000Z,4.5
2024-03-26T10:26:23.000Z,5.4
2024-03-26T10:29:56.000Z,7.1
2024-03-26T10:33:29.000Z,3.7
2024-03-26T10:37:02.000Z,3.5
2024-03-26T10:40:36.000Z,5.5
2024-03-26T10:44:09.000Z,3.3
2024-03-26T10:48:00.000Z,6.6
2024-03-26T10:51:33.000Z,4.1
2024-03-26T10:54:18.000Z,6.4
2024-03-26T10:57:51.000Z,6.3
2024-03-26T11:01:23.000Z,5.2
2024-03-26T11:04:56.000Z,4.4
2024-03-26T11:08:29.000Z,7.2
2024-03-26T11:12:03.000Z,3.8
2024-03-26T11:15:35.000Z,5.5
2024-03-26T11:19:08.000Z,4.1
2024-03-26T11:22:40.000Z,4
2024-03-26T11:26:13.000Z,6
2024-03-26T11:29:46.000Z,5
2024-03-26T11:32:31.000Z,4.4
2024-03-26T11:36:04.000Z,3.9
2024-03-26T11:39:37.000Z,5.9
2024-03-26T11:43:10.000Z,6.8
2024-03-26T11:46:42.000Z,4.4
2024-03-26T11:50:15.000Z,5.9
2024-03-26T11:53:47.000Z,5.1
2024-03-26T11:57:20.000Z,4.4
2024-03-26T12:00:53.000Z,5.9
2024-03-26T12:04:26.000Z,5.6
2024-03-26T12:07:59.000Z,6.6
2024-03-26T12:10:44.000Z,5.3
2024-03-26T12:14:17.000Z,4.7
2024-03-26T12:17:50.000Z,3.6
2024-03-26T12:21:22.000Z,3.9
2024-03-26T12:24:55.000Z,4.3
2024-03-26T12:28:28.000Z,6.2
2024-03-26T12:32:00.000Z,5.5
2024-03-26T12:35:33.000Z,4.1
2024-03-26T12:39:06.000Z,6.3
2024-03-26T12:42:39.000Z,6
2024-03-26T12:46:12.000Z,6.1
2024-03-26T12:48:58.000Z,5.8
2024-03-26T12:52:30.000Z,3.7
2024-03-26T12:56:03.000Z,5.2
2024-03-26T12:59:36.000Z,6
2024-03-26T13:03:08.000Z,2.9
2024-03-26T13:06:41.000Z,4
2024-03-26T13:10:14.000Z,4.5
2024-03-26T13:13:47.000Z,3.2
2024-03-26T13:17:20.000Z,4.1
2024-03-26T13:20:52.000Z,4.9
2024-03-26T13:24:25.000Z,2.9
2024-03-26T13:27:11.000Z,3
2024-03-26T13:30:44.000Z,2.9
2024-03-26T13:34:16.000Z,2.8
2024-03-26T13:37:51.000Z,3.3
2024-03-26T13:41:24.000Z,2.7
2024-03-26T13:44:56.000Z,2.9
2024-03-26T13:48:29.000Z,2.4
2024-03-26T13:52:02.000Z,3.5
2024-03-26T13:55:35.000Z,2.8
2024-03-26T13:59:08.000Z,4.3
2024-03-26T14:02:40.000Z,3.9
2024-03-26T14:05:26.000Z,3
2024-03-26T14:08:58.000Z,3.4
2024-03-26T14:12:32.000Z,4.2
2024-03-26T14:16:04.000Z,3.2
2024-03-26T14:19:37.000Z,6.3
2024-03-26T14:23:10.000Z,4.3
2024-03-26T14:26:42.000Z,3.3
2024-03-26T14:30:15.000Z,3
2024-03-26T14:33:48.000Z,3.1
2024-03-26T14:37:21.000Z,3.7
2024-03-26T14:40:54.000Z,3.9
2024-03-26T14:43:39.000Z,4.7
2024-03-26T14:47:12.000Z,4.3
2024-03-26T14:50:45.000Z,2.3
2024-03-26T14:54:17.000Z,3.6
2024-03-26T14:57:50.000Z,2.9
2024-03-26T15:01:23.000Z,3.4
2024-03-26T15:04:55.000Z,2.6
2024-03-26T15:08:28.000Z,3
2024-03-26T15:12:01.000Z,3.4
2024-03-26T15:15:33.000Z,2
2024-03-26T15:19:06.000Z,3.1
2024-03-26T15:21:51.000Z,3.8
2024-03-26T15:25:24.000Z,2.4
2024-03-26T15:28:57.000Z,2.8
2024-03-26T15:32:29.000Z,2.5
2024-03-26T15:36:03.000Z,1.9
2024-03-26T15:39:35.000Z,3.8
2024-03-26T15:43:08.000Z,4.2
2024-03-26T15:46:44.000Z,2.5
2024-03-26T15:50:19.000Z,2.1
2024-03-26T15:53:52.000Z,2.3
2024-03-26T15:57:25.000Z,3.3
2024-03-26T16:00:10.000Z,3.7
2024-03-26T16:03:44.000Z,2.3
2024-03-26T16:07:16.000Z,3.7
2024-03-26T16:10:49.000Z,3.2
2024-03-26T16:14:37.000Z,4.1
2024-03-26T16:18:09.000Z,4
2024-03-26T16:21:42.000Z,4
2024-03-26T16:25:15.000Z,4.8
2024-03-26T16:28:48.000Z,5.1
2024-03-26T16:32:22.000Z,7.9
2024-03-26T16:35:55.000Z,5.5
2024-03-26T16:38:40.000Z,5.4
2024-03-26T16:42:13.000Z,4.7
2024-03-26T16:45:46.000Z,6.7
2024-03-26T16:49:18.000Z,3.2
2024-03-26T16:52:51.000Z,3.6
2024-03-26T16:56:24.000Z,4.2
2024-03-26T16:59:57.000Z,3.2
2024-03-26T17:03:29.000Z,3.9
2024-03-26T17:07:02.000Z,3.6
2024-03-26T17:10:35.000Z,3.8
2024-03-26T17:14:08.000Z,3.7
2024-03-26T17:16:53.000Z,2.6
2024-03-26T17:20:37.000Z,4.4
2024-03-26T17:24:12.000Z,4.6
2024-03-26T17:27:45.000Z,5.1
2024-03-26T17:31:18.000Z,5.1
2024-03-26T17:34:51.000Z,3.1
2024-03-26T17:38:23.000Z,4.5
2024-03-26T17:41:57.000Z,3
2024-03-26T17:45:30.000Z,3.2
2024-03-26T17:49:02.000Z,2.7
2024-03-26T17:52:35.000Z,3.8
2024-03-26T17:55:20.000Z,4
2024-03-26T17:58:53.000Z,6.6
2024-03-26T18:02:26.000Z,5.1
2024-03-26T18:05:58.000Z,4.4
2024-03-26T18:09:31.000Z,3.7
2024-03-26T18:13:04.000Z,5.8
2024-03-26T18:16:37.000Z,5.5
2024-03-26T18:20:10.000Z,7.7
2024-03-26T18:23:43.000Z,7.9
2024-03-26T18:27:16.000Z,8.1
2024-03-26T18:30:48.000Z,6.4
2024-03-26T18:33:34.000Z,5
2024-03-26T18:37:07.000Z,4.9
2024-03-26T18:40:40.000Z,3.8
2024-03-26T18:44:13.000Z,5.4
2024-03-26T18:47:46.000Z,4.4
2024-03-26T18:51:19.000Z,4
2024-03-26T18:54:51.000Z,4.6
2024-03-26T18:58:24.000Z,5.3
2024-03-26T19:01:57.000Z,4.4
2024-03-26T19:05:30.000Z,4.5
2024-03-26T19:09:03.000Z,3
2024-03-26T19:11:48.000Z,4.5
2024-03-26T19:15:21.000Z,3.9
2024-03-26T19:18:53.000Z,7.2
2024-03-26T19:22:26.000Z,3.3
2024-03-26T19:25:59.000Z,4.9
2024-03-26T19:29:31.000Z,4
2024-03-26T19:33:04.000Z,3.3
2024-03-26T19:36:37.000Z,4.3
2024-03-26T19:40:11.000Z,4.6
2024-03-26T19:43:45.000Z,5.2
2024-03-26T19:47:17.000Z,3.8
2024-03-26T19:50:03.000Z,5.2
2024-03-26T19:53:35.000Z,3.6
2024-03-26T19:57:09.000Z,3.9
2024-03-26T20:00:42.000Z,3.6
2024-03-26T20:04:16.000Z,4.1
2024-03-26T20:07:49.000Z,6.6
2024-03-26T20:11:22.000Z,5
2024-03-26T20:14:54.000Z,4.1
2024-03-26T20:18:29.000Z,5
2024-03-26T20:22:02.000Z,6
2024-03-26T20:25:35.000Z,3.8
2024-03-26T20:28:20.000Z,3.8
2024-03-26T20:31:53.000Z,4
2024-03-26T20:35:26.000Z,3.9
2024-03-26T20:38:59.000Z,3.5
2024-03-26T20:42:31.000Z,4
2024-03-26T20:46:04.000Z,5.8
2024-03-26T20:49:36.000Z,4.4
2024-03-26T20:53:09.000Z,6.4
2024-03-26T20:56:42.000Z,5.2
2024-03-26T21:00:15.000Z,5
2024-03-26T21:03:48.000Z,4.9
2024-03-26T21:06:33.000Z,4.8
2024-03-26T21:10:06.000Z,5.4
2024-03-26T21:13:39.000Z,6.8
2024-03-26T21:17:25.000Z,9.5
2024-03-26T21:20:57.000Z,6.8
2024-03-26T21:24:30.000Z,8.7
2024-03-26T21:28:02.000Z,12.4
2024-03-26T21:31:35.000Z,10.7
2024-03-26T21:35:08.000Z,7.7
2024-03-26T21:38:42.000Z,6.3
2024-03-26T21:42:14.000Z,12.4
2024-03-26T21:45:00.000Z,16.1
2024-03-26T21:48:32.000Z,8.4
2024-03-26T21:52:05.000Z,8.6
2024-03-26T21:55:38.000Z,11.7
2024-03-26T21:59:11.000Z,15
2024-03-26T22:02:44.000Z,8.3
2024-03-26T22:06:17.000Z,4.2
2024-03-26T22:09:49.000Z,7.3
2024-03-26T22:13:22.000Z,8.5
2024-03-26T22:16:55.000Z,5
2024-03-26T22:20:28.000Z,5.4
2024-03-26T22:23:13.000Z,4.9
2024-03-26T22:26:46.000Z,6.4
2024-03-26T22:30:19.000Z,5.9
2024-03-26T22:33:51.000Z,6
2024-03-26T22:37:24.000Z,4.6
2024-03-26T22:40:57.000Z,3.7
2024-03-26T22:44:29.000Z,6.3
2024-03-26T22:48:02.000Z,6.1
2024-03-26T22:51:34.000Z,6.7
2024-03-26T22:55:07.000Z,5.4
2024-03-26T22:58:40.000Z,6.2
2024-03-26T23:01:26.000Z,4.8
2024-03-26T23:04:59.000Z,4.7
2024-03-26T23:08:32.000Z,6.1
2024-03-26T23:12:05.000Z,6.3
2024-03-26T23:15:37.000Z,5.8
2024-03-26T23:19:10.000Z,5.7
2024-03-26T23:22:43.000Z,6.8
2024-03-26T23:26:16.000Z,5
2024-03-26T23:29:49.000Z,6.7
2024-03-26T23:33:22.000Z,3.9
2024-03-26T23:36:55.000Z,6.7
2024-03-26T23:39:40.000Z,4.9
2024-03-26T23:43:13.000Z,3.8
2024-03-26T23:46:45.000Z,4.2
2024-03-26T23:50:18.000Z,4.2
2024-03-26T23:53:51.000Z,4.9
2024-03-26T23:57:24.000Z,3.2
